sensor_id;sensor_type;location;lat;lon;timestamp;P1;durP1;ratioP1;P2;durP2;ratioP2
30299;SDS011;17110;52.602;12.998;2023-11-19T00:03:49;5.25;;;4.15;;
30299;SDS011;17110;52.602;12.998;2023-11-19T00:08:51;6.45;;;4.88;;
30299;SDS011;17110;52.602;12.998;2023-11-19T00:13:52;9.95;;;6.13;;
30299;SDS011;17110;52.602;12.998;2023-11-19T00:18:52;11.30;;;5.05;;
30299;SDS011;17110;52.602;12.998;2023-11-19T00:23:55;6.25;;;4.63;;
30299;SDS011;17110;52.602;12.998;2023-11-19T00:28:55;4.95;;;4.18;;
30299;SDS011;17110;52.602;12.998;2023-11-19T00:33:56;5.75;;;4.57;;
30299;SDS011;17110;52.602;12.998;2023-11-19T00:38:58;6.82;;;5.00;;
30299;SDS011;17110;52.602;12.998;2023-11-19T00:43:59;6.35;;;5.13;;
30299;SDS011;17110;52.602;12.998;2023-11-19T00:49:00;4.45;;;3.97;;
30299;SDS011;17110;52.602;12.998;2023-11-19T00:54:02;8.23;;;4.72;;
30299;SDS011;17110;52.602;12.998;2023-11-19T00:59:03;8.98;;;5.78;;
30299;SDS011;17110;52.602;12.998;2023-11-19T01:04:04;7.38;;;4.25;;
30299;SDS011;17110;52.602;12.998;2023-11-19T01:09:06;10.70;;;4.40;;
30299;SDS011;17110;52.602;12.998;2023-11-19T01:14:07;8.23;;;4.78;;
30299;SDS011;17110;52.602;12.998;2023-11-19T01:19:08;5.97;;;4.00;;
30299;SDS011;17110;52.602;12.998;2023-11-19T01:24:10;3.10;;;2.80;;
30299;SDS011;17110;52.602;12.998;2023-11-19T01:29:12;4.05;;;3.65;;
30299;SDS011;17110;52.602;12.998;2023-11-19T01:34:12;3.97;;;3.33;;
30299;SDS011;17110;52.602;12.998;2023-11-19T01:39:14;3.53;;;2.75;;
30299;SDS011;17110;52.602;12.998;2023-11-19T01:44:15;7.90;;;3.53;;
30299;SDS011;17110;52.602;12.998;2023-11-19T01:49:16;3.72;;;3.13;;
30299;SDS011;17110;52.602;12.998;2023-11-19T01:54:20;2.75;;;2.55;;
30299;SDS011;17110;52.602;12.998;2023-11-19T01:59:21;2.75;;;2.47;;
30299;SDS011;17110;52.602;12.998;2023-11-19T02:04:21;4.65;;;2.75;;
30299;SDS011;17110;52.602;12.998;2023-11-19T02:09:24;5.88;;;3.28;;
30299;SDS011;17110;52.602;12.998;2023-11-19T02:14:25;3.28;;;2.40;;
30299;SDS011;17110;52.602;12.998;2023-11-19T02:19:26;5.28;;;3.22;;
30299;SDS011;17110;52.602;12.998;2023-11-19T02:24:28;5.30;;;3.22;;
30299;SDS011;17110;52.602;12.998;2023-11-19T02:29:33;3.60;;;3.25;;
30299;SDS011;17110;52.602;12.998;2023-11-19T02:34:34;4.00;;;3.17;;
30299;SDS011;17110;52.602;12.998;2023-11-19T02:39:35;2.58;;;2.30;;
30299;SDS011;17110;52.602;12.998;2023-11-19T02:44:37;3.55;;;3.03;;
30299;SDS011;17110;52.602;12.998;2023-11-19T02:49:37;3.22;;;2.92;;
30299;SDS011;17110;52.602;12.998;2023-11-19T02:54:38;3.38;;;2.88;;
30299;SDS011;17110;52.602;12.998;2023-11-19T02:59:40;3.45;;;2.30;;
30299;SDS011;17110;52.602;12.998;2023-11-19T03:04:41;4.60;;;4.03;;
30299;SDS011;17110;52.602;12.998;2023-11-19T03:09:42;5.75;;;3.42;;
30299;SDS011;17110;52.602;12.998;2023-11-19T03:14:44;3.33;;;2.88;;
30299;SDS011;17110;52.602;12.998;2023-11-19T03:19:45;3.30;;;3.00;;
30299;SDS011;17110;52.602;12.998;2023-11-19T03:24:45;5.18;;;3.08;;
30299;SDS011;17110;52.602;12.998;2023-11-19T03:29:47;2.60;;;2.40;;
30299;SDS011;17110;52.602;12.998;2023-11-19T03:34:48;3.45;;;2.83;;
30299;SDS011;17110;52.602;12.998;2023-11-19T03:39:50;4.00;;;3.05;;
30299;SDS011;17110;52.602;12.998;2023-11-19T03:44:52;3.53;;;2.85;;
30299;SDS011;17110;52.602;12.998;2023-11-19T03:49:53;3.65;;;3.17;;
30299;SDS011;17110;52.602;12.998;2023-11-19T03:54:54;6.65;;;3.10;;
30299;SDS011;17110;52.602;12.998;2023-11-19T03:59:57;6.93;;;3.60;;
30299;SDS011;17110;52.602;12.998;2023-11-19T04:04:58;4.35;;;3.85;;
30299;SDS011;17110;52.602;12.998;2023-11-19T04:09:59;3.15;;;2.85;;
30299;SDS011;17110;52.602;12.998;2023-11-19T04:15:01;4.47;;;3.30;;
30299;SDS011;17110;52.602;12.998;2023-11-19T04:20:02;4.47;;;2.97;;
30299;SDS011;17110;52.602;12.998;2023-11-19T04:25:03;5.50;;;3.65;;
30299;SDS011;17110;52.602;12.998;2023-11-19T04:30:06;3.17;;;2.88;;
30299;SDS011;17110;52.602;12.998;2023-11-19T04:35:07;6.68;;;3.97;;
30299;SDS011;17110;52.602;12.998;2023-11-19T04:40:08;3.70;;;3.25;;
30299;SDS011;17110;52.602;12.998;2023-11-19T04:45:11;2.55;;;2.38;;
30299;SDS011;17110;52.602;12.998;2023-11-19T04:50:12;2.70;;;2.38;;
30299;SDS011;17110;52.602;12.998;2023-11-19T04:55:13;2.40;;;2.20;;
30299;SDS011;17110;52.602;12.998;2023-11-19T05:00:15;2.50;;;2.20;;
30299;SDS011;17110;52.602;12.998;2023-11-19T05:05:16;2.50;;;2.13;;
30299;SDS011;17110;52.602;12.998;2023-11-19T05:10:17;2.63;;;2.17;;
30299;SDS011;17110;52.602;12.998;2023-11-19T05:15:19;2.72;;;2.28;;
30299;SDS011;17110;52.602;12.998;2023-11-19T05:20:20;2.08;;;1.73;;
30299;SDS011;17110;52.602;12.998;2023-11-19T05:25:20;3.15;;;2.22;;
30299;SDS011;17110;52.602;12.998;2023-11-19T05:30:22;1.30;;;1.20;;
30299;SDS011;17110;52.602;12.998;2023-11-19T05:35:23;2.10;;;1.90;;
30299;SDS011;17110;52.602;12.998;2023-11-19T05:40:24;1.70;;;1.52;;
30299;SDS011;17110;52.602;12.998;2023-11-19T05:45:26;1.88;;;1.75;;
30299;SDS011;17110;52.602;12.998;2023-11-19T05:50:27;2.22;;;2.00;;
30299;SDS011;17110;52.602;12.998;2023-11-19T05:55:28;1.92;;;1.83;;
30299;SDS011;17110;52.602;12.998;2023-11-19T06:00:30;6.32;;;2.55;;
30299;SDS011;17110;52.602;12.998;2023-11-19T06:05:30;3.13;;;2.10;;
30299;SDS011;17110;52.602;12.998;2023-11-19T06:10:31;2.10;;;1.90;;
30299;SDS011;17110;52.602;12.998;2023-11-19T06:15:33;1.77;;;1.60;;
30299;SDS011;17110;52.602;12.998;2023-11-19T06:20:34;3.03;;;1.70;;
30299;SDS011;17110;52.602;12.998;2023-11-19T06:25:35;1.85;;;1.75;;
30299;SDS011;17110;52.602;12.998;2023-11-19T06:30:37;3.85;;;2.00;;
30299;SDS011;17110;52.602;12.998;2023-11-19T06:35:38;2.55;;;2.13;;
30299;SDS011;17110;52.602;12.998;2023-11-19T06:40:38;2.08;;;1.90;;
30299;SDS011;17110;52.602;12.998;2023-11-19T06:45:41;1.88;;;1.73;;
30299;SDS011;17110;52.602;12.998;2023-11-19T06:50:41;2.17;;;2.00;;
30299;SDS011;17110;52.602;12.998;2023-11-19T06:55:42;3.63;;;2.90;;
30299;SDS011;17110;52.602;12.998;2023-11-19T07:00:44;2.50;;;2.22;;
30299;SDS011;17110;52.602;12.998;2023-11-19T07:05:45;2.88;;;2.58;;
30299;SDS011;17110;52.602;12.998;2023-11-19T07:10:46;2.33;;;2.13;;
30299;SDS011;17110;52.602;12.998;2023-11-19T07:15:48;2.53;;;2.25;;
30299;SDS011;17110;52.602;12.998;2023-11-19T07:20:49;3.30;;;2.30;;
30299;SDS011;17110;52.602;12.998;2023-11-19T07:25:49;2.30;;;2.13;;
30299;SDS011;17110;52.602;12.998;2023-11-19T07:30:51;2.72;;;2.35;;
30299;SDS011;17110;52.602;12.998;2023-11-19T07:35:52;2.70;;;2.50;;
30299;SDS011;17110;52.602;12.998;2023-11-19T07:40:53;4.50;;;2.58;;
30299;SDS011;17110;52.602;12.998;2023-11-19T07:45:55;2.33;;;2.22;;
30299;SDS011;17110;52.602;12.998;2023-11-19T07:50:56;2.08;;;1.92;;
30299;SDS011;17110;52.602;12.998;2023-11-19T07:55:56;4.72;;;2.63;;
30299;SDS011;17110;52.602;12.998;2023-11-19T08:00:59;3.00;;;2.70;;
30299;SDS011;17110;52.602;12.998;2023-11-19T08:06:00;2.97;;;2.20;;
30299;SDS011;17110;52.602;12.998;2023-11-19T08:11:01;2.38;;;2.15;;
30299;SDS011;17110;52.602;12.998;2023-11-19T08:16:03;3.25;;;3.00;;
30299;SDS011;17110;52.602;12.998;2023-11-19T08:21:04;4.68;;;3.70;;
30299;SDS011;17110;52.602;12.998;2023-11-19T08:26:05;3.63;;;3.30;;
30299;SDS011;17110;52.602;12.998;2023-11-19T08:31:08;2.78;;;2.58;;
30299;SDS011;17110;52.602;12.998;2023-11-19T08:36:08;4.00;;;3.60;;
30299;SDS011;17110;52.602;12.998;2023-11-19T08:41:15;4.72;;;4.25;;
30299;SDS011;17110;52.602;12.998;2023-11-19T08:46:17;4.07;;;3.35;;
30299;SDS011;17110;52.602;12.998;2023-11-19T08:51:18;3.65;;;2.97;;
30299;SDS011;17110;52.602;12.998;2023-11-19T08:56:19;3.42;;;3.13;;
30299;SDS011;17110;52.602;12.998;2023-11-19T09:01:21;3.17;;;2.42;;
30299;SDS011;17110;52.602;12.998;2023-11-19T09:06:22;2.78;;;2.45;;
30299;SDS011;17110;52.602;12.998;2023-11-19T09:11:23;3.10;;;2.75;;
30299;SDS011;17110;52.602;12.998;2023-11-19T09:16:25;2.83;;;2.63;;
30299;SDS011;17110;52.602;12.998;2023-11-19T09:21:25;2.95;;;2.65;;
30299;SDS011;17110;52.602;12.998;2023-11-19T09:26:26;2.47;;;2.28;;
30299;SDS011;17110;52.602;12.998;2023-11-19T09:31:28;2.83;;;2.30;;
30299;SDS011;17110;52.602;12.998;2023-11-19T09:36:29;3.05;;;2.67;;
30299;SDS011;17110;52.602;12.998;2023-11-19T09:41:30;3.63;;;2.67;;
30299;SDS011;17110;52.602;12.998;2023-11-19T09:46:32;3.47;;;1.95;;
30299;SDS011;17110;52.602;12.998;2023-11-19T09:51:33;2.45;;;1.70;;
30299;SDS011;17110;52.602;12.998;2023-11-19T09:56:34;2.72;;;1.80;;
30299;SDS011;17110;52.602;12.998;2023-11-19T10:01:39;2.70;;;1.55;;
30299;SDS011;17110;52.602;12.998;2023-11-19T10:06:40;1.98;;;1.65;;
30299;SDS011;17110;52.602;12.998;2023-11-19T10:11:42;2.65;;;1.98;;
30299;SDS011;17110;52.602;12.998;2023-11-19T10:16:44;4.25;;;2.25;;
30299;SDS011;17110;52.602;12.998;2023-11-19T10:21:45;2.75;;;1.77;;
30299;SDS011;17110;52.602;12.998;2023-11-19T10:26:46;2.75;;;1.55;;
30299;SDS011;17110;52.602;12.998;2023-11-19T10:31:56;2.25;;;1.60;;
30299;SDS011;17110;52.602;12.998;2023-11-19T10:41:58;3.67;;;2.80;;
30299;SDS011;17110;52.602;12.998;2023-11-19T10:47:17;3.47;;;2.53;;
30299;SDS011;17110;52.602;12.998;2023-11-19T10:52:19;5.88;;;2.22;;
30299;SDS011;17110;52.602;12.998;2023-11-19T10:57:21;5.13;;;3.17;;
30299;SDS011;17110;52.602;12.998;2023-11-19T11:02:24;5.40;;;2.58;;
30299;SDS011;17110;52.602;12.998;2023-11-19T11:07:27;4.32;;;2.65;;
30299;SDS011;17110;52.602;12.998;2023-11-19T11:12:31;4.95;;;2.58;;
30299;SDS011;17110;52.602;12.998;2023-11-19T11:17:37;8.82;;;2.97;;
30299;SDS011;17110;52.602;12.998;2023-11-19T11:22:42;6.03;;;2.17;;
30299;SDS011;17110;52.602;12.998;2023-11-19T11:28:02;19.58;;;4.40;;
30299;SDS011;17110;52.602;12.998;2023-11-19T11:33:18;5.55;;;3.05;;
30299;SDS011;17110;52.602;12.998;2023-11-19T11:38:33;5.30;;;2.92;;
30299;SDS011;17110;52.602;12.998;2023-11-19T11:43:43;9.88;;;4.45;;
30299;SDS011;17110;52.602;12.998;2023-11-19T11:48:46;15.75;;;3.83;;
30299;SDS011;17110;52.602;12.998;2023-11-19T11:53:49;15.55;;;3.60;;
30299;SDS011;17110;52.602;12.998;2023-11-19T11:58:52;7.57;;;2.38;;
30299;SDS011;17110;52.602;12.998;2023-11-19T12:03:55;5.18;;;2.88;;
30299;SDS011;17110;52.602;12.998;2023-11-19T12:08:59;8.10;;;3.30;;
30299;SDS011;17110;52.602;12.998;2023-11-19T12:14:00;5.28;;;2.80;;
30299;SDS011;17110;52.602;12.998;2023-11-19T12:19:03;4.57;;;2.85;;
30299;SDS011;17110;52.602;12.998;2023-11-19T12:24:04;7.65;;;3.50;;
30299;SDS011;17110;52.602;12.998;2023-11-19T12:29:07;7.05;;;4.35;;
30299;SDS011;17110;52.602;12.998;2023-11-19T12:34:09;21.00;;;3.45;;
30299;SDS011;17110;52.602;12.998;2023-11-19T12:39:10;4.97;;;2.83;;
30299;SDS011;17110;52.602;12.998;2023-11-19T12:44:11;7.60;;;3.22;;
30299;SDS011;17110;52.602;12.998;2023-11-19T12:49:13;15.20;;;4.70;;
30299;SDS011;17110;52.602;12.998;2023-11-19T12:54:14;7.80;;;3.38;;
30299;SDS011;17110;52.602;12.998;2023-11-19T12:59:15;12.95;;;4.53;;
30299;SDS011;17110;52.602;12.998;2023-11-19T13:04:17;5.50;;;3.10;;
30299;SDS011;17110;52.602;12.998;2023-11-19T13:09:21;7.45;;;3.30;;
30299;SDS011;17110;52.602;12.998;2023-11-19T13:14:22;4.78;;;3.15;;
30299;SDS011;17110;52.602;12.998;2023-11-19T13:19:25;4.60;;;2.80;;
30299;SDS011;17110;52.602;12.998;2023-11-19T13:24:26;6.70;;;3.10;;
30299;SDS011;17110;52.602;12.998;2023-11-19T13:29:26;5.00;;;2.97;;
30299;SDS011;17110;52.602;12.998;2023-11-19T13:34:28;10.05;;;4.50;;
30299;SDS011;17110;52.602;12.998;2023-11-19T13:39:29;6.20;;;3.20;;
30299;SDS011;17110;52.602;12.998;2023-11-19T13:44:30;9.85;;;3.92;;
30299;SDS011;17110;52.602;12.998;2023-11-19T13:49:32;10.40;;;4.35;;
30299;SDS011;17110;52.602;12.998;2023-11-19T13:54:33;9.00;;;3.65;;
30299;SDS011;17110;52.602;12.998;2023-11-19T13:59:37;5.82;;;4.30;;
30299;SDS011;17110;52.602;12.998;2023-11-19T14:04:41;10.48;;;4.85;;
30299;SDS011;17110;52.602;12.998;2023-11-19T14:09:42;7.03;;;3.92;;
30299;SDS011;17110;52.602;12.998;2023-11-19T14:14:42;10.85;;;4.45;;
30299;SDS011;17110;52.602;12.998;2023-11-19T14:19:45;13.50;;;5.43;;
30299;SDS011;17110;52.602;12.998;2023-11-19T14:24:45;14.50;;;5.60;;
30299;SDS011;17110;52.602;12.998;2023-11-19T14:29:46;14.20;;;4.50;;
30299;SDS011;17110;52.602;12.998;2023-11-19T14:34:48;9.70;;;4.30;;
30299;SDS011;17110;52.602;12.998;2023-11-19T14:39:49;8.45;;;3.95;;
30299;SDS011;17110;52.602;12.998;2023-11-19T14:44:50;9.38;;;4.95;;
30299;SDS011;17110;52.602;12.998;2023-11-19T14:49:52;10.38;;;3.85;;
30299;SDS011;17110;52.602;12.998;2023-11-19T14:54:53;10.82;;;4.35;;
30299;SDS011;17110;52.602;12.998;2023-11-19T14:59:53;7.25;;;3.15;;
30299;SDS011;17110;52.602;12.998;2023-11-19T15:04:56;10.20;;;3.88;;
30299;SDS011;17110;52.602;12.998;2023-11-19T15:09:56;17.17;;;4.25;;
30299;SDS011;17110;52.602;12.998;2023-11-19T15:14:57;11.27;;;4.90;;
30299;SDS011;17110;52.602;12.998;2023-11-19T15:19:59;12.18;;;4.88;;
30299;SDS011;17110;52.602;12.998;2023-11-19T15:25:00;10.48;;;4.40;;
30299;SDS011;17110;52.602;12.998;2023-11-19T15:30:00;17.52;;;5.47;;
30299;SDS011;17110;52.602;12.998;2023-11-19T15:35:03;7.90;;;4.10;;
30299;SDS011;17110;52.602;12.998;2023-11-19T15:40:04;7.43;;;3.30;;
30299;SDS011;17110;52.602;12.998;2023-11-19T15:45:06;10.48;;;4.05;;
30299;SDS011;17110;52.602;12.998;2023-11-19T15:50:09;10.30;;;3.78;;
30299;SDS011;17110;52.602;12.998;2023-11-19T15:55:10;10.30;;;3.85;;
30299;SDS011;17110;52.602;12.998;2023-11-19T16:00:11;13.93;;;5.25;;
30299;SDS011;17110;52.602;12.998;2023-11-19T16:05:13;15.77;;;6.93;;
30299;SDS011;17110;52.602;12.998;2023-11-19T16:10:14;9.85;;;4.93;;
30299;SDS011;17110;52.602;12.998;2023-11-19T16:15:15;11.32;;;3.60;;
30299;SDS011;17110;52.602;12.998;2023-11-19T16:20:17;17.75;;;4.38;;
30299;SDS011;17110;52.602;12.998;2023-11-19T16:25:18;10.15;;;4.55;;
30299;SDS011;17110;52.602;12.998;2023-11-19T16:30:19;5.50;;;3.70;;
30299;SDS011;17110;52.602;12.998;2023-11-19T16:35:21;6.15;;;3.78;;
30299;SDS011;17110;52.602;12.998;2023-11-19T16:40:22;7.38;;;3.80;;
30299;SDS011;17110;52.602;12.998;2023-11-19T16:45:23;10.05;;;4.50;;
30299;SDS011;17110;52.602;12.998;2023-11-19T16:50:25;13.48;;;5.00;;
30299;SDS011;17110;52.602;12.998;2023-11-19T16:55:27;15.15;;;5.40;;
30299;SDS011;17110;52.602;12.998;2023-11-19T17:00:29;11.65;;;4.65;;
30299;SDS011;17110;52.602;12.998;2023-11-19T17:05:32;7.30;;;3.80;;
30299;SDS011;17110;52.602;12.998;2023-11-19T17:10:32;11.60;;;4.35;;
30299;SDS011;17110;52.602;12.998;2023-11-19T17:15:33;10.50;;;4.18;;
30299;SDS011;17110;52.602;12.998;2023-11-19T17:20:35;10.25;;;4.63;;
30299;SDS011;17110;52.602;12.998;2023-11-19T17:25:36;16.40;;;4.07;;
30299;SDS011;17110;52.602;12.998;2023-11-19T17:30:37;5.43;;;2.63;;
30299;SDS011;17110;52.602;12.998;2023-11-19T17:35:39;9.38;;;4.05;;
30299;SDS011;17110;52.602;12.998;2023-11-19T17:40:40;4.50;;;2.67;;
30299;SDS011;17110;52.602;12.998;2023-11-19T17:45:41;10.90;;;2.53;;
30299;SDS011;17110;52.602;12.998;2023-11-19T17:50:43;3.65;;;2.55;;
30299;SDS011;17110;52.602;12.998;2023-11-19T17:55:43;12.48;;;2.17;;
30299;SDS011;17110;52.602;12.998;2023-11-19T18:00:44;7.10;;;2.75;;
30299;SDS011;17110;52.602;12.998;2023-11-19T18:05:46;13.02;;;3.72;;
30299;SDS011;17110;52.602;12.998;2023-11-19T18:10:47;4.30;;;2.13;;
30299;SDS011;17110;52.602;12.998;2023-11-19T18:15:48;5.20;;;2.40;;
30299;SDS011;17110;52.602;12.998;2023-11-19T18:20:50;4.15;;;3.00;;
30299;SDS011;17110;52.602;12.998;2023-11-19T18:25:51;3.25;;;2.53;;
30299;SDS011;17110;52.602;12.998;2023-11-19T18:30:51;3.17;;;1.98;;
30299;SDS011;17110;52.602;12.998;2023-11-19T18:35:53;11.15;;;2.78;;
30299;SDS011;17110;52.602;12.998;2023-11-19T18:40:54;4.65;;;2.63;;
30299;SDS011;17110;52.602;12.998;2023-11-19T18:45:55;6.90;;;2.60;;
30299;SDS011;17110;52.602;12.998;2023-11-19T18:50:57;5.55;;;2.80;;
30299;SDS011;17110;52.602;12.998;2023-11-19T18:55:58;18.95;;;4.15;;
30299;SDS011;17110;52.602;12.998;2023-11-19T19:00:58;8.13;;;4.20;;
30299;SDS011;17110;52.602;12.998;2023-11-19T19:06:01;5.90;;;3.13;;
30299;SDS011;17110;52.602;12.998;2023-11-19T19:11:01;8.40;;;3.28;;
30299;SDS011;17110;52.602;12.998;2023-11-19T19:16:05;8.23;;;4.13;;
30299;SDS011;17110;52.602;12.998;2023-11-19T19:21:07;8.38;;;4.60;;
30299;SDS011;17110;52.602;12.998;2023-11-19T19:26:08;9.73;;;3.90;;
30299;SDS011;17110;52.602;12.998;2023-11-19T19:31:09;6.20;;;4.03;;
30299;SDS011;17110;52.602;12.998;2023-11-19T19:36:11;11.27;;;4.20;;
30299;SDS011;17110;52.602;12.998;2023-11-19T19:41:12;7.97;;;4.15;;
30299;SDS011;17110;52.602;12.998;2023-11-19T19:46:12;7.78;;;3.17;;
30299;SDS011;17110;52.602;12.998;2023-11-19T19:51:15;8.48;;;4.95;;
30299;SDS011;17110;52.602;12.998;2023-11-19T19:56:15;13.52;;;3.85;;
30299;SDS011;17110;52.602;12.998;2023-11-19T20:01:16;8.43;;;3.65;;
30299;SDS011;17110;52.602;12.998;2023-11-19T20:06:18;11.75;;;4.22;;
30299;SDS011;17110;52.602;12.998;2023-11-19T20:11:19;14.68;;;4.60;;
30299;SDS011;17110;52.602;12.998;2023-11-19T20:16:20;17.15;;;4.35;;
30299;SDS011;17110;52.602;12.998;2023-11-19T20:21:22;4.53;;;3.35;;
30299;SDS011;17110;52.602;12.998;2023-11-19T20:26:23;10.55;;;4.82;;
30299;SDS011;17110;52.602;12.998;2023-11-19T20:31:23;9.32;;;3.50;;
30299;SDS011;17110;52.602;12.998;2023-11-19T20:36:25;14.57;;;4.22;;
30299;SDS011;17110;52.602;12.998;2023-11-19T20:41:26;7.18;;;3.17;;
30299;SDS011;17110;52.602;12.998;2023-11-19T20:46:27;5.03;;;3.05;;
30299;SDS011;17110;52.602;12.998;2023-11-19T20:51:29;9.98;;;4.28;;
30299;SDS011;17110;52.602;12.998;2023-11-19T20:56:30;5.13;;;2.78;;
30299;SDS011;17110;52.602;12.998;2023-11-19T21:01:31;5.82;;;2.95;;
30299;SDS011;17110;52.602;12.998;2023-11-19T21:06:33;4.93;;;2.63;;
30299;SDS011;17110;52.602;12.998;2023-11-19T21:11:33;9.25;;;3.83;;
30299;SDS011;17110;52.602;12.998;2023-11-19T21:16:34;13.45;;;4.20;;
30299;SDS011;17110;52.602;12.998;2023-11-19T21:21:36;13.55;;;4.28;;
30299;SDS011;17110;52.602;12.998;2023-11-19T21:26:37;16.83;;;6.32;;
30299;SDS011;17110;52.602;12.998;2023-11-19T21:31:38;11.27;;;5.00;;
30299;SDS011;17110;52.602;12.998;2023-11-19T21:36:40;4.95;;;3.47;;
30299;SDS011;17110;52.602;12.998;2023-11-19T21:41:41;7.55;;;3.67;;
30299;SDS011;17110;52.602;12.998;2023-11-19T21:46:41;4.38;;;3.08;;
30299;SDS011;17110;52.602;12.998;2023-11-19T21:51:44;5.53;;;3.08;;
30299;SDS011;17110;52.602;12.998;2023-11-19T21:56:44;10.38;;;3.13;;
30299;SDS011;17110;52.602;12.998;2023-11-19T22:01:45;29.85;;;3.78;;
30299;SDS011;17110;52.602;12.998;2023-11-19T22:06:47;10.65;;;3.55;;
30299;SDS011;17110;52.602;12.998;2023-11-19T22:11:48;5.90;;;3.17;;
30299;SDS011;17110;52.602;12.998;2023-11-19T22:16:49;6.88;;;3.63;;
30299;SDS011;17110;52.602;12.998;2023-11-19T22:21:51;7.32;;;4.03;;
30299;SDS011;17110;52.602;12.998;2023-11-19T22:26:51;6.95;;;4.18;;
30299;SDS011;17110;52.602;12.998;2023-11-19T22:31:54;7.03;;;3.45;;
30299;SDS011;17110;52.602;12.998;2023-11-19T22:36:57;18.90;;;3.63;;
30299;SDS011;17110;52.602;12.998;2023-11-19T22:41:58;7.15;;;4.13;;
30299;SDS011;17110;52.602;12.998;2023-11-19T22:46:58;5.43;;;3.40;;
30299;SDS011;17110;52.602;12.998;2023-11-19T22:52:01;12.18;;;4.50;;
30299;SDS011;17110;52.602;12.998;2023-11-19T22:57:02;10.32;;;3.72;;
30299;SDS011;17110;52.602;12.998;2023-11-19T23:02:03;8.60;;;3.80;;
30299;SDS011;17110;52.602;12.998;2023-11-19T23:07:05;4.60;;;2.92;;
30299;SDS011;17110;52.602;12.998;2023-11-19T23:12:06;4.32;;;2.85;;
30299;SDS011;17110;52.602;12.998;2023-11-19T23:17:20;7.47;;;2.65;;
30299;SDS011;17110;52.602;12.998;2023-11-19T23:22:22;6.13;;;3.42;;
30299;SDS011;17110;52.602;12.998;2023-11-19T23:27:23;5.75;;;2.95;;
30299;SDS011;17110;52.602;12.998;2023-11-19T23:32:24;7.68;;;3.50;;
30299;SDS011;17110;52.602;12.998;2023-11-19T23:37:26;16.75;;;5.22;;
30299;SDS011;17110;52.602;12.998;2023-11-19T23:42:27;8.25;;;3.00;;
30299;SDS011;17110;52.602;12.998;2023-11-19T23:47:27;6.97;;;3.13;;
30299;SDS011;17110;52.602;12.998;2023-11-19T23:52:29;11.32;;;4.85;;
30299;SDS011;17110;52.602;12.998;2023-11-19T23:57:30;10.35;;;4.13;;
